createdAt,value
2023-04-09T00:01:08.024Z,34.80
2023-04-09T00:03:36.404Z,26.70
2023-04-09T00:06:05.039Z,33.20
2023-04-09T00:08:33.018Z,27.40
2023-04-09T00:11:00.953Z,20.20
2023-04-09T00:13:38.569Z,25.60
2023-04-09T00:16:08.221Z,31.70
2023-04-09T00:18:36.395Z,37.10
2023-04-09T00:21:04.465Z,35.90
2023-04-09T00:23:32.418Z,35.80
2023-04-09T00:26:00.875Z,30.20
2023-04-09T00:28:28.778Z,31.40
2023-04-09T00:30:57.306Z,30.60
2023-04-09T00:33:25.857Z,35.30
2023-04-09T00:35:53.982Z,38.50
2023-04-09T00:38:21.844Z,40.50
2023-04-09T00:40:50.844Z,27.70
2023-04-09T00:43:18.819Z,35.80
2023-04-09T00:45:47.140Z,33.10
2023-04-09T00:48:15.517Z,36.10
2023-04-09T00:50:43.497Z,44.40
2023-04-09T00:53:11.609Z,34.60
2023-04-09T00:55:40.557Z,37.70
2023-04-09T00:58:08.592Z,27.00
2023-04-09T01:00:36.544Z,34.60
2023-04-09T01:03:05.558Z,37.90
2023-04-09T01:06:10.358Z,44.80
2023-04-09T01:08:46.476Z,42.50
2023-04-09T01:11:15.511Z,43.80
2023-04-09T01:14:12.454Z,44.60
2023-04-09T01:16:42.762Z,43.60
2023-04-09T01:19:19.934Z,39.20
2023-04-09T01:21:47.950Z,39.10
2023-04-09T01:24:28.005Z,39.30
2023-04-09T01:27:06.797Z,40.40
2023-04-09T01:29:54.965Z,47.90
2023-04-09T01:32:23.195Z,44.40
2023-04-09T01:34:51.310Z,33.50
2023-04-09T01:37:19.383Z,34.00
2023-04-09T01:39:47.391Z,33.00
2023-04-09T01:42:15.815Z,28.10
2023-04-09T01:44:43.809Z,36.20
2023-04-09T01:47:11.717Z,30.90
2023-04-09T01:49:41.260Z,30.00
2023-04-09T01:52:09.189Z,29.10
2023-04-09T01:54:37.098Z,30.30
2023-04-09T01:57:05.040Z,26.80
2023-04-09T01:59:33.107Z,36.20
2023-04-09T02:02:02.549Z,32.30
2023-04-09T02:04:35.535Z,35.00
2023-04-09T02:07:07.134Z,34.00
2023-04-09T02:09:36.933Z,35.90
2023-04-09T02:12:06.850Z,25.50
2023-04-09T02:14:34.825Z,28.30
2023-04-09T02:17:02.788Z,19.80
2023-04-09T02:19:46.946Z,39.00
2023-04-09T02:22:15.781Z,33.60
2023-04-09T02:24:44.357Z,31.80
2023-04-09T02:27:12.459Z,45.00
2023-04-09T02:29:40.658Z,37.80
2023-04-09T02:32:08.774Z,39.30
2023-04-09T02:34:37.131Z,39.10
2023-04-09T02:37:05.014Z,39.20
2023-04-09T02:39:35.246Z,34.20
2023-04-09T02:42:03.758Z,36.80
2023-04-09T02:44:31.949Z,40.10
2023-04-09T02:46:59.934Z,41.50
2023-04-09T02:49:28.005Z,35.60
2023-04-09T02:51:56.086Z,38.30
2023-04-09T02:54:24.017Z,38.10
2023-04-09T02:56:51.967Z,43.30
2023-04-09T02:59:19.996Z,38.50
2023-04-09T03:01:47.991Z,44.20
2023-04-09T03:04:16.186Z,51.80
2023-04-09T03:06:44.145Z,34.20
2023-04-09T03:09:12.100Z,49.10
2023-04-09T03:11:40.322Z,49.70
2023-04-09T03:14:08.305Z,33.50
2023-04-09T03:16:36.251Z,32.90
2023-04-09T03:19:04.230Z,34.60
2023-04-09T03:21:33.219Z,41.00
2023-04-09T03:24:02.599Z,28.40
2023-04-09T03:26:36.140Z,36.70
2023-04-09T03:29:05.575Z,35.00
2023-04-09T03:31:36.455Z,26.10
2023-04-09T03:34:04.500Z,43.20
2023-04-09T03:36:33.452Z,39.60
2023-04-09T03:39:06.749Z,42.80
2023-04-09T03:41:40.332Z,38.40
2023-04-09T03:44:12.047Z,42.60
2023-04-09T03:46:49.570Z,45.80
2023-04-09T03:49:19.004Z,34.40
2023-04-09T03:51:47.775Z,36.50
2023-04-09T03:54:17.144Z,26.40
2023-04-09T03:56:48.639Z,24.90
2023-04-09T03:59:17.098Z,31.10
2023-04-09T04:01:48.367Z,31.70
2023-04-09T04:04:16.903Z,37.60
2023-04-09T04:06:56.899Z,33.30
2023-04-09T04:09:31.452Z,38.20
2023-04-09T04:12:04.085Z,38.60
2023-04-09T04:14:50.598Z,31.50
2023-04-09T04:17:24.240Z,39.30
2023-04-09T04:19:53.192Z,23.50
2023-04-09T04:22:22.428Z,31.50
2023-04-09T04:24:53.381Z,41.10
2023-04-09T04:27:24.367Z,26.00
2023-04-09T04:29:52.564Z,34.40
2023-04-09T04:32:46.845Z,31.20
2023-04-09T04:35:15.000Z,36.70
2023-04-09T04:37:43.205Z,29.60
2023-04-09T04:40:12.690Z,39.60
2023-04-09T04:42:51.400Z,30.80
2023-04-09T04:45:20.012Z,36.80
2023-04-09T04:47:52.203Z,28.60
2023-04-09T04:50:20.636Z,27.30
2023-04-09T04:53:01.192Z,35.20
2023-04-09T04:55:36.269Z,34.50
2023-04-09T04:58:04.661Z,33.80
2023-04-09T05:00:42.133Z,42.80
2023-04-09T05:03:10.863Z,39.20
2023-04-09T05:05:56.162Z,29.50
2023-04-09T05:08:25.011Z,23.00
2023-04-09T05:11:00.516Z,31.90
2023-04-09T05:13:36.916Z,28.20
2023-04-09T05:16:09.247Z,32.10
2023-04-09T05:18:38.120Z,23.10
2023-04-09T05:21:08.259Z,26.00
2023-04-09T05:23:37.158Z,20.90
2023-04-09T05:26:06.066Z,30.80
2023-04-09T05:28:46.340Z,29.50
2023-04-09T05:31:18.541Z,27.20
2023-04-09T05:33:53.370Z,30.40
2023-04-09T05:36:26.073Z,33.20
2023-04-09T05:38:56.728Z,26.90
2023-04-09T05:41:26.630Z,32.10
2023-04-09T05:44:25.056Z,29.00
2023-04-09T05:47:20.313Z,27.30
2023-04-09T05:50:10.041Z,31.90
2023-04-09T05:52:44.773Z,26.70
2023-04-09T05:55:14.139Z,30.60
2023-04-09T05:57:55.915Z,40.30
2023-04-09T06:00:24.249Z,32.20
2023-04-09T06:02:52.417Z,20.90
2023-04-09T06:05:21.413Z,26.50
2023-04-09T06:07:49.389Z,30.80
2023-04-09T06:10:17.379Z,27.60
2023-04-09T06:12:49.178Z,31.40
2023-04-09T06:15:24.007Z,29.40
2023-04-09T06:17:52.092Z,20.70
2023-04-09T06:20:20.091Z,26.70
2023-04-09T06:22:48.232Z,35.90
2023-04-09T06:25:16.202Z,34.60
2023-04-09T06:27:44.160Z,19.30
2023-04-09T06:30:12.372Z,22.80
2023-04-09T06:32:50.966Z,23.80
2023-04-09T06:35:21.681Z,24.40
2023-04-09T06:37:49.974Z,26.90
2023-04-09T06:40:19.226Z,28.70
2023-04-09T06:42:48.681Z,32.70
2023-04-09T06:45:22.288Z,28.90
2023-04-09T06:47:50.342Z,34.80
2023-04-09T06:50:18.464Z,29.80
2023-04-09T06:52:46.387Z,22.80
2023-04-09T06:55:14.393Z,28.30
2023-04-09T06:57:42.567Z,29.70
2023-04-09T07:00:11.064Z,23.20
2023-04-09T07:02:39.238Z,26.80
2023-04-09T07:05:07.987Z,33.60
2023-04-09T07:07:35.861Z,29.30
2023-04-09T07:10:04.041Z,23.60
2023-04-09T07:12:33.307Z,31.20
2023-04-09T07:15:02.287Z,26.30
2023-04-09T07:17:31.160Z,21.90
2023-04-09T07:19:59.125Z,18.40
2023-04-09T07:22:29.842Z,22.80
2023-04-09T07:24:57.847Z,18.90
2023-04-09T07:27:32.444Z,21.80
2023-04-09T07:30:00.832Z,18.60
2023-04-09T07:32:31.494Z,19.80
2023-04-09T07:34:59.902Z,19.80
2023-04-09T07:37:28.325Z,21.80
2023-04-09T07:39:57.953Z,17.80
2023-04-09T07:42:27.383Z,24.50
2023-04-09T07:44:56.690Z,19.20
2023-04-09T07:47:24.754Z,25.50
2023-04-09T07:49:52.684Z,22.80
2023-04-09T07:52:22.270Z,14.00
2023-04-09T07:54:51.884Z,20.80
2023-04-09T07:57:20.192Z,15.00
2023-04-09T07:59:50.013Z,18.90
2023-04-09T08:02:18.368Z,17.50
2023-04-09T08:04:47.014Z,15.50
2023-04-09T08:07:15.360Z,18.70
2023-04-09T08:09:43.341Z,21.60
2023-04-09T08:12:11.299Z,15.40
2023-04-09T08:14:39.361Z,17.80
2023-04-09T08:17:07.331Z,21.40
2023-04-09T08:19:36.123Z,20.90
2023-04-09T08:22:05.403Z,21.20
2023-04-09T08:24:37.368Z,16.40
2023-04-09T08:27:05.433Z,23.30
2023-04-09T08:29:34.931Z,22.00
2023-04-09T08:32:03.158Z,17.40
2023-04-09T08:34:31.135Z,17.00
2023-04-09T08:36:59.085Z,16.10
2023-04-09T08:39:27.222Z,18.30
2023-04-09T08:41:59.108Z,20.60
2023-04-09T08:44:27.353Z,21.90
2023-04-09T08:46:57.631Z,20.10
2023-04-09T08:49:27.299Z,20.70
2023-04-09T08:51:55.263Z,20.20
2023-04-09T08:54:26.967Z,19.10
2023-04-09T08:56:56.448Z,18.20
2023-04-09T08:59:25.386Z,13.80
2023-04-09T09:02:12.665Z,10.70
2023-04-09T09:04:50.333Z,18.40
2023-04-09T09:07:18.673Z,17.80
2023-04-09T09:09:58.772Z,19.10
2023-04-09T09:12:46.365Z,14.10
2023-04-09T09:15:30.557Z,19.50
2023-04-09T09:17:59.601Z,17.60
2023-04-09T09:20:28.009Z,18.10
2023-04-09T09:22:56.769Z,17.80
2023-04-09T09:25:26.959Z,20.10
2023-04-09T09:27:55.644Z,19.80
2023-04-09T09:30:26.753Z,16.20
2023-04-09T09:32:59.823Z,21.80
2023-04-09T09:35:28.107Z,18.90
2023-04-09T09:38:05.810Z,19.30
2023-04-09T09:40:33.891Z,23.50
2023-04-09T09:43:02.080Z,17.80
2023-04-09T09:45:30.045Z,21.10
2023-04-09T09:47:59.273Z,23.00
2023-04-09T09:50:27.357Z,17.70
2023-04-09T09:53:03.837Z,15.90
2023-04-09T09:55:38.062Z,13.90
2023-04-09T09:58:17.764Z,18.60
2023-04-09T10:00:47.251Z,21.80
2023-04-09T10:03:18.380Z,16.20
2023-04-09T10:05:46.528Z,18.60
2023-04-09T10:08:14.479Z,16.20
2023-04-09T10:10:42.545Z,15.80
2023-04-09T10:13:16.789Z,16.10
2023-04-09T10:15:44.892Z,19.20
2023-04-09T10:18:12.979Z,18.40
2023-04-09T10:20:43.970Z,14.20
2023-04-09T10:23:16.498Z,17.10
2023-04-09T10:25:46.006Z,17.30
2023-04-09T10:28:17.956Z,19.40
2023-04-09T10:30:46.649Z,19.10
2023-04-09T10:33:17.173Z,17.70
2023-04-09T10:35:47.032Z,19.50
2023-04-09T10:38:15.216Z,15.40
2023-04-09T10:40:51.000Z,17.20
2023-04-09T10:43:20.064Z,19.50
2023-04-09T10:45:51.397Z,17.30
2023-04-09T10:48:19.836Z,16.80
2023-04-09T10:50:47.821Z,17.20
2023-04-09T10:53:25.956Z,19.90
2023-04-09T10:55:54.282Z,18.00
2023-04-09T10:58:22.291Z,16.70
2023-04-09T11:00:51.485Z,19.40
2023-04-09T11:03:23.838Z,20.10
2023-04-09T11:05:54.145Z,20.40
2023-04-09T11:08:23.993Z,20.90
2023-04-09T11:10:54.558Z,17.20
2023-04-09T11:13:22.771Z,19.20
2023-04-09T11:15:51.204Z,19.30
2023-04-09T11:18:30.881Z,17.20
2023-04-09T11:21:00.493Z,15.20
2023-04-09T11:23:29.614Z,15.30
2023-04-09T11:25:58.034Z,18.30
2023-04-09T11:28:26.279Z,15.60
2023-04-09T11:30:54.643Z,17.50
2023-04-09T11:33:22.911Z,18.20
2023-04-09T11:35:51.315Z,21.00
2023-04-09T11:38:19.493Z,18.60
2023-04-09T11:40:51.505Z,19.30
2023-04-09T11:43:22.290Z,20.80
2023-04-09T11:45:53.149Z,20.40
2023-04-09T11:48:23.460Z,21.90
2023-04-09T11:50:51.658Z,16.60
2023-04-09T11:53:20.829Z,21.50
2023-04-09T11:55:52.478Z,20.50
2023-04-09T11:58:25.480Z,19.00
2023-04-09T12:00:55.890Z,20.10
2023-04-09T12:03:33.731Z,14.80
2023-04-09T12:06:02.925Z,18.20
2023-04-09T12:08:31.545Z,18.60
2023-04-09T12:11:11.425Z,17.90
2023-04-09T12:13:43.375Z,17.60
2023-04-09T12:16:14.777Z,20.40
2023-04-09T12:18:43.394Z,17.20
2023-04-09T12:21:11.564Z,18.00
2023-04-09T12:23:42.004Z,16.80
2023-04-09T12:26:10.105Z,17.90
2023-04-09T12:28:38.917Z,20.10
2023-04-09T12:31:10.103Z,20.50
2023-04-09T12:33:41.214Z,21.50
2023-04-09T12:36:09.513Z,19.60
2023-04-09T12:38:37.833Z,16.40
2023-04-09T12:41:06.355Z,18.40
2023-04-09T12:43:34.457Z,18.70
2023-04-09T12:46:02.552Z,18.40
2023-04-09T12:48:30.740Z,27.80
2023-04-09T12:50:59.176Z,19.50
2023-04-09T12:53:27.521Z,18.10
2023-04-09T12:55:55.480Z,20.30
2023-04-09T12:58:24.574Z,20.40
2023-04-09T13:00:54.055Z,22.80
2023-04-09T13:03:22.995Z,23.90
2023-04-09T13:05:51.664Z,23.50
2023-04-09T13:08:20.095Z,21.20
2023-04-09T13:10:48.250Z,20.90
2023-04-09T13:13:16.738Z,24.00
2023-04-09T13:15:45.496Z,20.20
2023-04-09T13:18:13.941Z,20.30
2023-04-09T13:20:42.459Z,21.20
2023-04-09T13:23:11.042Z,19.50
2023-04-09T13:25:39.158Z,22.60
2023-04-09T13:28:07.695Z,20.20
2023-04-09T13:30:35.752Z,22.50
2023-04-09T13:33:04.065Z,20.20
2023-04-09T13:35:32.517Z,22.10
2023-04-09T13:38:01.665Z,20.60
2023-04-09T13:40:29.651Z,18.40
2023-04-09T13:42:57.783Z,18.00
2023-04-09T13:45:26.245Z,22.20
2023-04-09T13:47:55.834Z,21.10
2023-04-09T13:50:24.031Z,19.40
2023-04-09T13:52:51.997Z,19.90
2023-04-09T13:55:20.743Z,21.90
2023-04-09T13:57:49.580Z,20.40
2023-04-09T14:00:19.936Z,23.30
2023-04-09T14:02:48.157Z,21.00
2023-04-09T14:05:16.611Z,21.90
2023-04-09T14:07:44.788Z,23.20
2023-04-09T14:10:12.750Z,23.60
2023-04-09T14:12:41.161Z,27.50
2023-04-09T14:15:10.337Z,21.60
2023-04-09T14:17:38.483Z,20.50
2023-04-09T14:20:07.169Z,18.30
2023-04-09T14:22:35.252Z,21.10
2023-04-09T14:25:03.402Z,19.90
2023-04-09T14:27:31.635Z,17.10
2023-04-09T14:29:59.630Z,21.70
2023-04-09T14:32:27.817Z,18.80
2023-04-09T14:34:56.353Z,22.70
2023-04-09T14:37:24.574Z,19.10
2023-04-09T14:39:53.489Z,20.50
2023-04-09T14:42:21.781Z,19.20
2023-04-09T14:45:00.636Z,18.20
2023-04-09T14:47:39.495Z,19.70
2023-04-09T14:50:11.269Z,22.70
2023-04-09T14:52:39.626Z,22.90
2023-04-09T14:55:12.472Z,23.20
2023-04-09T14:57:42.155Z,21.00
2023-04-09T15:00:11.953Z,20.90
2023-04-09T15:02:41.861Z,20.60
2023-04-09T15:05:11.505Z,20.60
2023-04-09T15:07:39.769Z,20.00
2023-04-09T15:10:08.618Z,22.60
2023-04-09T15:12:37.122Z,19.20
2023-04-09T15:15:06.728Z,19.00
2023-04-09T15:17:34.847Z,20.30
2023-04-09T15:20:03.852Z,19.90
2023-04-09T15:22:32.025Z,19.90
2023-04-09T15:25:01.441Z,18.50
2023-04-09T15:27:31.575Z,17.50
2023-04-09T15:29:59.513Z,20.80
2023-04-09T15:32:29.081Z,15.80
2023-04-09T15:34:57.291Z,20.00
2023-04-09T15:37:25.923Z,18.30
2023-04-09T15:39:54.225Z,17.60
2023-04-09T15:42:23.603Z,15.00
2023-04-09T15:44:51.922Z,17.50
2023-04-09T15:47:21.417Z,17.30
2023-04-09T15:49:52.443Z,15.50
2023-04-09T15:52:20.569Z,18.90
2023-04-09T15:54:48.640Z,16.90
2023-04-09T15:57:16.779Z,18.50
2023-04-09T15:59:48.394Z,18.40
2023-04-09T16:02:17.045Z,19.10
2023-04-09T16:04:45.465Z,17.40
2023-04-09T16:07:17.627Z,17.00
2023-04-09T16:09:47.034Z,17.80
2023-04-09T16:12:15.604Z,21.30
2023-04-09T16:14:43.735Z,15.50
2023-04-09T16:17:12.579Z,18.70
2023-04-09T16:19:43.797Z,18.90
2023-04-09T16:22:12.005Z,16.80
2023-04-09T16:24:40.693Z,17.30
2023-04-09T16:27:08.659Z,18.90
2023-04-09T16:29:36.634Z,15.40
2023-04-09T16:32:05.105Z,18.60
2023-04-09T16:34:33.161Z,15.70
2023-04-09T16:37:01.596Z,17.90
2023-04-09T16:39:30.138Z,13.10
2023-04-09T16:41:59.053Z,23.90
2023-04-09T16:44:27.629Z,22.30
2023-04-09T16:46:56.579Z,24.20
2023-04-09T16:49:24.746Z,23.60
2023-04-09T16:51:54.478Z,18.60
2023-04-09T16:54:22.666Z,22.20
2023-04-09T16:56:50.680Z,21.20
2023-04-09T16:59:21.586Z,21.30
2023-04-09T17:01:59.451Z,23.00
2023-04-09T17:04:27.780Z,20.80
2023-04-09T17:06:55.934Z,22.70
2023-04-09T17:09:26.423Z,22.50
2023-04-09T17:11:54.591Z,23.20
2023-04-09T17:14:22.982Z,21.80
2023-04-09T17:16:53.090Z,22.30
2023-04-09T17:19:21.109Z,20.40
2023-04-09T17:21:49.171Z,23.80
2023-04-09T17:24:17.368Z,24.00
2023-04-09T17:26:46.505Z,22.70
2023-04-09T17:29:14.752Z,21.30
2023-04-09T17:31:43.467Z,25.10
2023-04-09T17:34:27.462Z,24.90
2023-04-09T17:37:04.965Z,23.90
2023-04-09T17:39:33.102Z,24.50
2023-04-09T17:42:04.746Z,29.00
2023-04-09T17:44:35.444Z,24.50
2023-04-09T17:47:05.272Z,26.60
2023-04-09T17:49:33.720Z,22.00
2023-04-09T17:52:03.336Z,30.10
2023-04-09T17:54:34.996Z,44.70
2023-04-09T17:57:04.723Z,38.40
2023-04-09T17:59:33.357Z,26.00
2023-04-09T18:02:02.332Z,25.50
2023-04-09T18:04:31.638Z,30.00
2023-04-09T18:06:59.788Z,26.10
2023-04-09T18:09:27.769Z,23.90
2023-04-09T18:11:56.658Z,28.00
2023-04-09T18:14:27.140Z,25.20
2023-04-09T18:16:55.052Z,25.00
2023-04-09T18:19:23.080Z,29.80
2023-04-09T18:21:51.564Z,28.00
2023-04-09T18:24:19.586Z,27.70
2023-04-09T18:26:47.663Z,28.50
2023-04-09T18:29:15.870Z,31.60
2023-04-09T18:31:46.143Z,30.60
2023-04-09T18:34:14.267Z,31.20
2023-04-09T18:36:42.955Z,33.20
2023-04-09T18:39:10.872Z,27.70
2023-04-09T18:41:38.838Z,26.30
2023-04-09T18:44:07.341Z,30.40
2023-04-09T18:46:35.611Z,39.60
2023-04-09T18:49:04.125Z,41.20
2023-04-09T18:51:32.373Z,35.40
2023-04-09T18:54:01.210Z,37.70
2023-04-09T18:56:30.093Z,38.50
2023-04-09T18:58:58.323Z,37.40
2023-04-09T19:01:26.597Z,36.00
2023-04-09T19:03:54.900Z,43.00
2023-04-09T19:06:23.472Z,24.60
2023-04-09T19:08:57.309Z,25.70
2023-04-09T19:11:26.263Z,31.00
2023-04-09T19:13:54.963Z,29.50
2023-04-09T19:16:23.020Z,31.10
2023-04-09T19:18:54.125Z,30.80
2023-04-09T19:21:22.678Z,30.90
2023-04-09T19:23:50.897Z,31.20
2023-04-09T19:26:19.351Z,34.60
2023-04-09T19:28:47.918Z,21.10
2023-04-09T19:31:17.176Z,24.60
2023-04-09T19:33:45.324Z,21.60
2023-04-09T19:36:14.603Z,19.30
2023-04-09T19:38:42.716Z,20.00
2023-04-09T19:41:10.860Z,15.90
2023-04-09T19:43:39.483Z,14.00
2023-04-09T19:46:08.652Z,17.50
2023-04-09T19:48:38.147Z,13.40
2023-04-09T19:51:07.241Z,12.60
2023-04-09T19:53:39.280Z,13.00
2023-04-09T19:56:07.724Z,17.70
2023-04-09T19:58:36.213Z,18.00
2023-04-09T20:01:04.831Z,13.10
2023-04-09T20:03:33.420Z,12.90
2023-04-09T20:06:06.812Z,11.80
2023-04-09T20:08:35.385Z,11.40
2023-04-09T20:11:03.875Z,8.10
2023-04-09T20:13:34.854Z,7.60
2023-04-09T20:16:03.114Z,8.20
2023-04-09T20:18:31.555Z,6.70
2023-04-09T20:21:00.722Z,6.70
2023-04-09T20:23:32.647Z,6.60
2023-04-09T20:26:00.996Z,6.90
2023-04-09T20:28:29.859Z,9.30
2023-04-09T20:31:00.669Z,7.80
2023-04-09T20:33:28.958Z,9.70
2023-04-09T20:35:56.960Z,10.10
2023-04-09T20:38:25.113Z,9.80
2023-04-09T20:40:53.379Z,6.50
2023-04-09T20:43:21.645Z,7.30
2023-04-09T20:45:49.715Z,7.40
2023-04-09T20:48:19.029Z,7.60
2023-04-09T20:50:46.967Z,10.00
2023-04-09T20:53:15.341Z,8.90
2023-04-09T20:55:46.523Z,8.90
2023-04-09T20:58:14.636Z,9.00
2023-04-09T21:00:42.747Z,10.30
2023-04-09T21:03:10.824Z,9.00
2023-04-09T21:05:38.858Z,6.90
2023-04-09T21:08:06.805Z,11.90
2023-04-09T21:10:34.816Z,12.00
2023-04-09T21:13:02.971Z,12.60
2023-04-09T21:15:31.090Z,11.90
2023-04-09T21:17:59.561Z,7.50
2023-04-09T21:20:27.516Z,8.60
2023-04-09T21:22:56.229Z,6.30
2023-04-09T21:25:28.441Z,8.30
2023-04-09T21:27:56.751Z,8.10
2023-04-09T21:30:24.870Z,9.80
2023-04-09T21:32:54.671Z,9.50
2023-04-09T21:35:22.750Z,10.60
2023-04-09T21:37:51.682Z,10.00
2023-04-09T21:40:19.744Z,8.20
2023-04-09T21:42:47.767Z,8.40
2023-04-09T21:45:16.684Z,7.50
2023-04-09T21:47:45.729Z,10.00
2023-04-09T21:50:15.092Z,10.50
2023-04-09T21:52:47.394Z,8.90
2023-04-09T21:55:15.799Z,11.80
2023-04-09T21:57:43.984Z,6.80
2023-04-09T22:00:16.251Z,10.00
2023-04-09T22:02:44.769Z,9.60
2023-04-09T22:05:13.040Z,8.30
2023-04-09T22:07:42.561Z,10.70
2023-04-09T22:10:10.697Z,7.60
2023-04-09T22:12:38.722Z,7.40
2023-04-09T22:15:07.090Z,8.30
2023-04-09T22:17:35.551Z,9.90
2023-04-09T22:20:04.924Z,11.20
2023-04-09T22:22:33.224Z,6.90
2023-04-09T22:25:01.698Z,8.00
2023-04-09T22:27:29.932Z,8.60
2023-04-09T22:29:58.168Z,7.40
2023-04-09T22:32:26.198Z,8.50
2023-04-09T22:34:55.329Z,10.20
2023-04-09T22:37:23.402Z,5.80
2023-04-09T22:39:51.562Z,9.80
2023-04-09T22:42:19.626Z,11.60
2023-04-09T22:44:47.663Z,9.60
2023-04-09T22:47:16.057Z,7.10
2023-04-09T22:49:44.300Z,10.60
2023-04-09T22:52:12.823Z,15.60
2023-04-09T22:54:43.243Z,10.70
2023-04-09T22:57:11.376Z,6.30
2023-04-09T22:59:41.918Z,8.30
2023-04-09T23:02:10.453Z,8.40
2023-04-09T23:04:39.042Z,9.10
2023-04-09T23:07:09.906Z,12.50
2023-04-09T23:09:38.350Z,10.00
2023-04-09T23:12:06.338Z,9.70
2023-04-09T23:14:34.317Z,8.70
2023-04-09T23:17:02.345Z,9.60
2023-04-09T23:19:30.413Z,10.90
2023-04-09T23:21:58.438Z,9.60
2023-04-09T23:24:26.405Z,9.30
2023-04-09T23:26:54.467Z,10.60
2023-04-09T23:29:22.374Z,12.60
2023-04-09T23:31:50.560Z,12.00
2023-04-09T23:34:18.654Z,10.30
2023-04-09T23:36:46.833Z,12.40
2023-04-09T23:39:14.847Z,10.50
2023-04-09T23:41:42.922Z,9.70
2023-04-09T23:44:10.924Z,8.00
2023-04-09T23:46:38.904Z,8.60
2023-04-09T23:49:07.350Z,8.30
2023-04-09T23:51:38.002Z,7.90
2023-04-09T23:54:07.274Z,8.50
2023-04-09T23:56:35.441Z,9.30
2023-04-09T23:59:03.494Z,8.50
